Hlavní strana
METAR-TAF:

METAR-TAF

Letiště :

Røros, Norsko

zeměpisná šířka: 62-35N, zeměpisná délka: 011-21E, výška: 626 m

Aktuální stav počasí

Zpráva byla vytvořena před 28 minutami, v 01:50 UTC
Východojihovýchodní vítr 7 kt
Teplota 1°C
Vlhkost vzduchu 93%
Tlak 1016 hPa
Viditelnost 10 km a více

METAR: ENRO 230150Z AUTO 11007KT 9999NDV FEW019/// SCT029/// BKN040/// 01/M00 Q1016

Čas: 03:18 (02:18 UTC)

Předpověď počasí

Zpráva byla vytvořena před 15 hodinami a 18 minutami, v 11:00 UTC
Předpověď platná od 22 v 12 UTC do 22 v 20 UTC
Jihojihovýchodní vítr 8 kt
Viditelnost 10 km a více
Polojasno ve výšce 800 ft
Oblačno až skoro zataženo ve výšce 1500 ft
Dočasný
od 22 v 12 UTC do 22 v 20 UTC
Oblačno až skoro zataženo ve výšce 800 ft

TAF: ENRO 221100Z 2212/2220 15008KT 9999 SCT008 BKN015 TEMPO 2212/2220 BKN008

Stav a předpovědi počasí z více než 4 000 letišť (zprávy METAR a TAF).

Červené a žluté tečky na mapě představují dostupné meteorologické stanice.

Když kurzor umístíte na tečku, zobrazí se název stanice.

Pak kliknutím zobrazíte stav a předpověď počasí.

Chcete-li změnit mapu, kliknutím na zelené tlačítko se znaménkem +mapu přiblížíte, kliknutím na zelené tlačítko se znaménkem – mapu oddálíte a kliknutím na zelené šipky přejdete na sousední mapy.


METAR-TAF: